Oglasa — ITMG — position and weather

sailwx.info

Track history (hours):
 
Tides and Currents Weather Stations Pressure Air Temp Water Temp Dewpoint Dewpoint Depression Visibility Wind Speed Wind Dir Waves Ship Positions

Oglasa

Last reported at 2017-Jun-25 17:40 UTC. Time now 2017-Jun-25 20:52 UTC.
Position N 42°53' E 010°28'.

Length 91 m; draft 3.8 m.

Type: Ship. MMSI: 247046800.

Date/timePositionNaut miles runAvg speedWind from/ knotsBaromVisibWave heightAir tempDewpointWater temp
2017-Jun-25 17:40N 42°53' E 010°28'3 1.2
2017-Jun-25 14:52N 42°54' E 010°32'10 6.9
2017-Jun-25 13:26N 42°49' E 010°21'715.0
2017-Jun-25 13:00N 42°53' E 010°27'5 5.1
2017-Jun-25 11:59N 42°55' E 010°34'715.2
2017-Jun-25 11:31N 42°53' E 010°25'6 5.9
2017-Jun-25 10:34N 42°48' E 010°20'113.5
2017-Jun-25 10:30N 42°49' E 010°21'11 0.7
2017-Jun-24 18:30N 42°56' E 010°33'1 1.9
2017-Jun-24 18:01N 42°56' E 010°34'815.1
2017-Jun-24 17:31N 42°53' E 010°25'5 8.1
2017-Jun-24 16:50N 42°49' E 010°19'1 3.1
2017-Jun-24 16:31N 42°49' E 010°21'815.2
2017-Jun-24 16:00N 42°54' E 010°29'4 4.4
2017-Jun-24 15:01N 42°56' E 010°34'013.8
2017-Jun-24 15:01N 42°56' E 010°34'13 9.6
2017-Jun-24 13:40N 42°49' E 010°19'1 5.0
2017-Jun-24 13:30N 42°49' E 010°21'815.3
2017-Jun-24 12:57N 42°54' E 010°30'4 4.3
2017-Jun-24 12:06N 42°56' E 010°34'111.6
2017-Jun-24 12:00N 42°55' E 010°34'915.6
2017-Jun-24 11:24N 42°51' E 010°22'2 2.9
2017-Jun-24 10:34N 42°49' E 010°20'116.1
2017-Jun-24 10:30N 42°49' E 010°21'5 2.9
2017-Jun-24 08:39N 42°53' E 010°27'6 5.4
2017-Jun-24 07:29N 42°49' E 010°20'3 0.2
2017-Jun-23 16:17N 42°51' E 010°23'415.3
2017-Jun-23 16:00N 42°54' E 010°28'5 5.0
2017-Jun-23 15:02N 42°56' E 010°34'014.0
2017-Jun-23 15:01N 42°56' E 010°34'815.3
2017-Jun-23 14:31N 42°53' E 010°24'5 4.5
2017-Jun-23 13:29N 42°49' E 010°21'715.3
2017-Jun-23 13:00N 42°54' E 010°28'2 1.9
2017-Jun-23 11:52N 42°54' E 010°31'616.2
2017-Jun-23 11:30N 42°52' E 010°23'4 5.9
2017-Jun-23 10:44N 42°49' E 010°19'210.3
2017-Jun-23 10:30N 42°50' E 010°22'6 3.4
2017-Jun-23 08:44N 42°54' E 010°29'815.2
2017-Jun-23 08:14N 42°49' E 010°20'6 2.2
2017-Jun-23 05:35N 42°53' E 010°26'315.8
2017-Jun-23 05:24N 42°51' E 010°23'4 5.3
2017-Jun-23 04:41N 42°49' E 010°19'1 3.7
2017-Jun-23 04:29N 42°49' E 010°20'11 0.9
2017-Jun-22 16:08N 42°56' E 010°33'1 6.4
2017-Jun-22 16:01N 42°56' E 010°34'714.7
2017-Jun-22 15:31N 42°53' E 010°25'6 7.2
2017-Jun-22 14:43N 42°49' E 010°19'0 1.0
2017-Jun-22 14:31N 42°49' E 010°20'12 8.4
2017-Jun-22 13:03N 42°56' E 010°33'011.8
2017-Jun-22 13:00N 42°56' E 010°34'713.5
2017-Jun-22 12:30N 42°53' E 010°26'612.4
2017-Jun-22 12:01N 42°49' E 010°19'0 0.4
2017-Jun-22 11:30N 42°49' E 010°20'714.8
2017-Jun-22 11:00N 42°54' E 010°27'5 5.4
2017-Jun-22 10:06N 42°56' E 010°33'1 9.2
2017-Jun-22 10:00N 42°55' E 010°34'815.3
2017-Jun-22 09:31N 42°53' E 010°24'5 7.9
2017-Jun-22 08:50N 42°49' E 010°19'1 2.3
2017-Jun-22 08:26N 42°49' E 010°21'715.0
2017-Jun-22 07:58N 42°54' E 010°28'3 1.5
2017-Jun-22 05:49N 42°54' E 010°32'516.5
2017-Jun-22 05:31N 42°53' E 010°25'612.1
2017-Jun-22 05:00N 42°49' E 010°19'0 0.3
2017-Jun-22 04:30N 42°49' E 010°20'1114.5
2017-Jun-22 03:43N 42°55' E 010°33'2 0.1
2017-Jun-21 16:00N 42°56' E 010°34'714.6
2017-Jun-21 15:30N 42°53' E 010°25'6 5.5
2017-Jun-21 14:27N 42°48' E 010°20'10 5.8
2017-Jun-21 12:47N 42°54' E 010°31'416.6
2017-Jun-21 12:30N 42°53' E 010°25'6 6.2
2017-Jun-21 11:33N 42°49' E 010°20'0 9.3
2017-Jun-21 11:30N 42°48' E 010°20'715.1
2017-Jun-21 11:00N 42°54' E 010°27'5 5.3
2017-Jun-21 10:05N 42°56' E 010°33'1 9.5
2017-Jun-21 10:00N 42°56' E 010°34'815.0
2017-Jun-21 09:31N 42°53' E 010°24'6 6.0
2017-Jun-21 08:35N 42°49' E 010°19'1 6.5
2017-Jun-21 08:30N 42°49' E 010°20'815.1
2017-Jun-21 08:00N 42°54' E 010°28'4 1.8
2017-Jun-21 05:53N 42°54' E 010°33'616.3
2017-Jun-21 05:30N 42°53' E 010°24'6 5.5
2017-Jun-21 04:30N 42°49' E 010°20'1114.9
2017-Jun-21 03:47N 42°54' E 010°32'1 0.1
2017-Jun-20 15:52N 42°54' E 010°33'615.9
2017-Jun-20 15:30N 42°53' E 010°25'1 0.8
2017-Jun-20 14:00N 42°54' E 010°27'5 5.5
2017-Jun-20 13:03N 42°56' E 010°33'010.8
2017-Jun-20 13:00N 42°56' E 010°34'714.2
2017-Jun-20 12:31N 42°53' E 010°25'610.1
2017-Jun-20 11:56N 42°49' E 010°19'0 0.1
2017-Jun-20 11:31N 42°49' E 010°19'714.5
2017-Jun-20 11:00N 42°54' E 010°27'5 5.4
2017-Jun-20 10:03N 42°56' E 010°33'012.4
2017-Jun-20 10:00N 42°56' E 010°34'713.9
2017-Jun-20 09:30N 42°53' E 010°25'611.8
2017-Jun-20 09:00N 42°49' E 010°19'0 0.1
2017-Jun-20 08:30N 42°49' E 010°19'713.9
2017-Jun-20 08:00N 42°53' E 010°27'5 2.8
2017-Jun-20 06:07N 42°56' E 010°33'1 6.4
2017-Jun-20 06:00N 42°56' E 010°34'815.5
2017-Jun-20 05:30N 42°53' E 010°24'510.8
2017-Jun-20 05:00N 42°49' E 010°19'1 1.0
2017-Jun-20 04:30N 42°49' E 010°20'1115.0
2017-Jun-20 03:44N 42°55' E 010°33'2 0.2
2017-Jun-19 17:43N 42°54' E 010°30'316.2
2017-Jun-19 17:30N 42°53' E 010°26'4 2.1
2017-Jun-19 15:50N 42°54' E 010°30'3 3.5
2017-Jun-19 15:05N 42°56' E 010°33'1 9.8
2017-Jun-19 15:01N 42°56' E 010°34'1312.7
2017-Jun-19 14:00N 42°49' E 010°19'0 1.0
2017-Jun-19 13:30N 42°48' E 010°20'815.4
2017-Jun-19 13:00N 42°54' E 010°28'5 4.6
2017-Jun-19 12:00N 42°56' E 010°33'612.5
2017-Jun-19 11:31N 42°53' E 010°26'6 5.6
2017-Jun-19 10:28N 42°49' E 010°20'6 3.4
2017-Jun-19 08:35N 42°53' E 010°27'315.6
2017-Jun-19 08:24N 42°52' E 010°23'4 5.6
2017-Jun-19 07:37N 42°49' E 010°19'0 2.7
2017-Jun-19 07:30N 42°49' E 010°20'11 6.9
2017-Jun-19 05:55N 42°54' E 010°32'715.8
2017-Jun-19 05:28N 42°52' E 010°23'4 9.4
2017-Jun-19 05:00N 42°49' E 010°19'1 1.0
2017-Jun-19 04:28N 42°49' E 010°20'12 1.2
2017-Jun-18 18:00N 42°56' E 010°33'612.4
2017-Jun-18 17:30N 42°53' E 010°26'6 6.2
2017-Jun-18 16:29N 42°49' E 010°19'714.6
2017-Jun-18 16:00N 42°53' E 010°27'5 5.7
2017-Jun-18 15:03N 42°56' E 010°33'111.9
2017-Jun-18 15:00N 42°56' E 010°34'714.8
2017-Jun-18 14:31N 42°53' E 010°25'2 1.6
2017-Jun-18 13:14N 42°52' E 010°23'7 5.2
2017-Jun-18 11:49N 42°54' E 010°32'2 0.1
2017-Jun-17 18:01N 42°56' E 010°33'1 8.9
2017-Jun-17 17:58N 42°56' E 010°34'715.2
2017-Jun-17 17:31N 42°53' E 010°25'611.9
2017-Jun-17 17:00N 42°49' E 010°19'0 0.1
2017-Jun-17 16:29N 42°49' E 010°19'1214.5
2017-Jun-17 15:40N 42°55' E 010°33'1 1.6
2017-Jun-17 14:56N 42°56' E 010°34'615.0
2017-Jun-17 14:31N 42°53' E 010°26'7 6.6
2017-Jun-17 13:31N 42°49' E 010°19'714.5
2017-Jun-17 13:00N 42°54' E 010°27'5 7.7
2017-Jun-17 12:22N 42°56' E 010°33'0 0.8
2017-Jun-17 12:00N 42°56' E 010°33'612.4
2017-Jun-17 11:30N 42°53' E 010°26'5 4.6
2017-Jun-17 10:23N 42°49' E 010°21'715.5
2017-Jun-17 09:55N 42°54' E 010°28'4 5.0
2017-Jun-17 09:08N 42°56' E 010°33'1 6.2
2017-Jun-17 09:00N 42°56' E 010°34'715.0
2017-Jun-17 08:30N 42°53' E 010°25'611.2
2017-Jun-17 08:00N 42°49' E 010°19'0 0.1
2017-Jun-17 07:30N 42°49' E 010°19'1314.5
2017-Jun-17 06:38N 42°56' E 010°34'4 4.2
2017-Jun-17 05:40N 42°54' E 010°29'515.8
2017-Jun-17 05:23N 42°52' E 010°23'411.0
2017-Jun-17 05:00N 42°49' E 010°19'0 0.1
2017-Jun-17 04:30N 42°49' E 010°19'914.2
2017-Jun-17 03:51N 42°54' E 010°30'3 0.3
2017-Jun-16 17:55N 42°55' E 010°34'615.6
2017-Jun-16 17:30N 42°53' E 010°26'611.6
2017-Jun-16 16:58N 42°49' E 010°19'0 0.3
2017-Jun-16 16:31N 42°49' E 010°20'714.2
2017-Jun-16 16:00N 42°53' E 010°27'5 5.5
2017-Jun-16 15:00N 42°56' E 010°33'1312.4
2017-Jun-16 13:59N 42°49' E 010°19'0 0.2
2017-Jun-16 13:29N 42°49' E 010°20'714.4
2017-Jun-16 13:00N 42°53' E 010°27'5 5.5
2017-Jun-16 12:03N 42°56' E 010°33'0 4.3
2017-Jun-16 12:00N 42°56' E 010°33'612.3
2017-Jun-16 11:31N 42°53' E 010°26'6 9.2
2017-Jun-16 10:49N 42°49' E 010°19'0 0.5
2017-Jun-16 10:30N 42°49' E 010°20'714.6
2017-Jun-16 10:00N 42°53' E 010°27'5 5.3
2017-Jun-16 09:03N 42°56' E 010°33'111.8
2017-Jun-16 09:00N 42°56' E 010°34'914.7
2017-Jun-16 08:23N 42°52' E 010°23'4 9.7
2017-Jun-16 07:59N 42°49' E 010°19'0 0.6
2017-Jun-16 07:30N 42°49' E 010°20'1314.2
2017-Jun-16 06:37N 42°56' E 010°34'0 0.7
2017-Jun-16 06:00N 42°56' E 010°34'815.1
2017-Jun-16 05:31N 42°53' E 010°25'6 8.2
2017-Jun-16 04:50N 42°49' E 010°19'0 0.1
2017-Jun-16 04:30N 42°49' E 010°19'914.4
2017-Jun-16 03:53N 42°54' E 010°29'  
Track history (hours):
 
Tides and Currents Weather Stations Pressure Air Temp Water Temp Dewpoint Dewpoint Depression Visibility Wind Speed Wind Dir Waves Ship Positions

Oglasa

Last reported at 2017-Jun-25 17:40 UTC. Time now 2017-Jun-25 20:52 UTC.
Position N 42°53' E 010°28'.

Length 91 m; draft 3.8 m.

Type: Ship. MMSI: 247046800.

Date/timePositionNaut miles runAvg speedWind from/ knotsBaromVisibWave heightAir tempDewpointWater temp
2017-Jun-25 17:40N 42°53' E 010°28'3 1.2
2017-Jun-25 14:52N 42°54' E 010°32'10 6.9
2017-Jun-25 13:26N 42°49' E 010°21'715.0
2017-Jun-25 13:00N 42°53' E 010°27'5 5.1
2017-Jun-25 11:59N 42°55' E 010°34'715.2
2017-Jun-25 11:31N 42°53' E 010°25'6 5.9
2017-Jun-25 10:34N 42°48' E 010°20'113.5
2017-Jun-25 10:30N 42°49' E 010°21'11 0.7
2017-Jun-24 18:30N 42°56' E 010°33'1 1.9
2017-Jun-24 18:01N 42°56' E 010°34'815.1
2017-Jun-24 17:31N 42°53' E 010°25'5 8.1
2017-Jun-24 16:50N 42°49' E 010°19'1 3.1
2017-Jun-24 16:31N 42°49' E 010°21'815.2
2017-Jun-24 16:00N 42°54' E 010°29'4 4.4
2017-Jun-24 15:01N 42°56' E 010°34'013.8
2017-Jun-24 15:01N 42°56' E 010°34'13 9.6
2017-Jun-24 13:40N 42°49' E 010°19'1 5.0
2017-Jun-24 13:30N 42°49' E 010°21'815.3
2017-Jun-24 12:57N 42°54' E 010°30'4 4.3
2017-Jun-24 12:06N 42°56' E 010°34'111.6
2017-Jun-24 12:00N 42°55' E 010°34'915.6
2017-Jun-24 11:24N 42°51' E 010°22'2 2.9
2017-Jun-24 10:34N 42°49' E 010°20'116.1
2017-Jun-24 10:30N 42°49' E 010°21'5 2.9
2017-Jun-24 08:39N 42°53' E 010°27'6 5.4
2017-Jun-24 07:29N 42°49' E 010°20'3 0.2
2017-Jun-23 16:17N 42°51' E 010°23'415.3
2017-Jun-23 16:00N 42°54' E 010°28'5 5.0
2017-Jun-23 15:02N 42°56' E 010°34'014.0
2017-Jun-23 15:01N 42°56' E 010°34'815.3
2017-Jun-23 14:31N 42°53' E 010°24'5 4.5
2017-Jun-23 13:29N 42°49' E 010°21'715.3
2017-Jun-23 13:00N 42°54' E 010°28'2 1.9
2017-Jun-23 11:52N 42°54' E 010°31'616.2
2017-Jun-23 11:30N 42°52' E 010°23'4 5.9
2017-Jun-23 10:44N 42°49' E 010°19'210.3
2017-Jun-23 10:30N 42°50' E 010°22'6 3.4
2017-Jun-23 08:44N 42°54' E 010°29'815.2
2017-Jun-23 08:14N 42°49' E 010°20'6 2.2
2017-Jun-23 05:35N 42°53' E 010°26'315.8
2017-Jun-23 05:24N 42°51' E 010°23'4 5.3
2017-Jun-23 04:41N 42°49' E 010°19'1 3.7
2017-Jun-23 04:29N 42°49' E 010°20'11 0.9
2017-Jun-22 16:08N 42°56' E 010°33'1 6.4
2017-Jun-22 16:01N 42°56' E 010°34'714.7
2017-Jun-22 15:31N 42°53' E 010°25'6 7.2
2017-Jun-22 14:43N 42°49' E 010°19'0 1.0
2017-Jun-22 14:31N 42°49' E 010°20'12 8.4
2017-Jun-22 13:03N 42°56' E 010°33'011.8
2017-Jun-22 13:00N 42°56' E 010°34'713.5
2017-Jun-22 12:30N 42°53' E 010°26'612.4
2017-Jun-22 12:01N 42°49' E 010°19'0 0.4
2017-Jun-22 11:30N 42°49' E 010°20'714.8
2017-Jun-22 11:00N 42°54' E 010°27'5 5.4
2017-Jun-22 10:06N 42°56' E 010°33'1 9.2
2017-Jun-22 10:00N 42°55' E 010°34'815.3
2017-Jun-22 09:31N 42°53' E 010°24'5 7.9
2017-Jun-22 08:50N 42°49' E 010°19'1 2.3
2017-Jun-22 08:26N 42°49' E 010°21'715.0
2017-Jun-22 07:58N 42°54' E 010°28'3 1.5
2017-Jun-22 05:49N 42°54' E 010°32'516.5
2017-Jun-22 05:31N 42°53' E 010°25'612.1
2017-Jun-22 05:00N 42°49' E 010°19'0 0.3
2017-Jun-22 04:30N 42°49' E 010°20'1114.5
2017-Jun-22 03:43N 42°55' E 010°33'2 0.1
2017-Jun-21 16:00N 42°56' E 010°34'714.6
2017-Jun-21 15:30N 42°53' E 010°25'6 5.5
2017-Jun-21 14:27N 42°48' E 010°20'10 5.8
2017-Jun-21 12:47N 42°54' E 010°31'416.6
2017-Jun-21 12:30N 42°53' E 010°25'6 6.2
2017-Jun-21 11:33N 42°49' E 010°20'0 9.3
2017-Jun-21 11:30N 42°48' E 010°20'715.1
2017-Jun-21 11:00N 42°54' E 010°27'5 5.3
2017-Jun-21 10:05N 42°56' E 010°33'1 9.5
2017-Jun-21 10:00N 42°56' E 010°34'815.0
2017-Jun-21 09:31N 42°53' E 010°24'6 6.0
2017-Jun-21 08:35N 42°49' E 010°19'1 6.5
2017-Jun-21 08:30N 42°49' E 010°20'815.1
2017-Jun-21 08:00N 42°54' E 010°28'4 1.8
2017-Jun-21 05:53N 42°54' E 010°33'616.3
2017-Jun-21 05:30N 42°53' E 010°24'6 5.5
2017-Jun-21 04:30N 42°49' E 010°20'1114.9
2017-Jun-21 03:47N 42°54' E 010°32'1 0.1
2017-Jun-20 15:52N 42°54' E 010°33'615.9
2017-Jun-20 15:30N 42°53' E 010°25'1 0.8
2017-Jun-20 14:00N 42°54' E 010°27'5 5.5
2017-Jun-20 13:03N 42°56' E 010°33'010.8
2017-Jun-20 13:00N 42°56' E 010°34'714.2
2017-Jun-20 12:31N 42°53' E 010°25'610.1
2017-Jun-20 11:56N 42°49' E 010°19'0 0.1
2017-Jun-20 11:31N 42°49' E 010°19'714.5
2017-Jun-20 11:00N 42°54' E 010°27'5 5.4
2017-Jun-20 10:03N 42°56' E 010°33'012.4
2017-Jun-20 10:00N 42°56' E 010°34'713.9
2017-Jun-20 09:30N 42°53' E 010°25'611.8
2017-Jun-20 09:00N 42°49' E 010°19'0 0.1
2017-Jun-20 08:30N 42°49' E 010°19'713.9
2017-Jun-20 08:00N 42°53' E 010°27'5 2.8
2017-Jun-20 06:07N 42°56' E 010°33'1 6.4
2017-Jun-20 06:00N 42°56' E 010°34'815.5
2017-Jun-20 05:30N 42°53' E 010°24'510.8
2017-Jun-20 05:00N 42°49' E 010°19'1 1.0
2017-Jun-20 04:30N 42°49' E 010°20'1115.0
2017-Jun-20 03:44N 42°55' E 010°33'2 0.2
2017-Jun-19 17:43N 42°54' E 010°30'316.2
2017-Jun-19 17:30N 42°53' E 010°26'4 2.1
2017-Jun-19 15:50N 42°54' E 010°30'3 3.5
2017-Jun-19 15:05N 42°56' E 010°33'1 9.8
2017-Jun-19 15:01N 42°56' E 010°34'1312.7
2017-Jun-19 14:00N 42°49' E 010°19'0 1.0
2017-Jun-19 13:30N 42°48' E 010°20'815.4
2017-Jun-19 13:00N 42°54' E 010°28'5 4.6
2017-Jun-19 12:00N 42°56' E 010°33'612.5
2017-Jun-19 11:31N 42°53' E 010°26'6 5.6
2017-Jun-19 10:28N 42°49' E 010°20'6 3.4
2017-Jun-19 08:35N 42°53' E 010°27'315.6
2017-Jun-19 08:24N 42°52' E 010°23'4 5.6
2017-Jun-19 07:37N 42°49' E 010°19'0 2.7
2017-Jun-19 07:30N 42°49' E 010°20'11 6.9
2017-Jun-19 05:55N 42°54' E 010°32'715.8
2017-Jun-19 05:28N 42°52' E 010°23'4 9.4
2017-Jun-19 05:00N 42°49' E 010°19'1 1.0
2017-Jun-19 04:28N 42°49' E 010°20'12 1.2
2017-Jun-18 18:00N 42°56' E 010°33'612.4
2017-Jun-18 17:30N 42°53' E 010°26'6 6.2
2017-Jun-18 16:29N 42°49' E 010°19'714.6
2017-Jun-18 16:00N 42°53' E 010°27'5 5.7
2017-Jun-18 15:03N 42°56' E 010°33'111.9
2017-Jun-18 15:00N 42°56' E 010°34'714.8
2017-Jun-18 14:31N 42°53' E 010°25'2 1.6
2017-Jun-18 13:14N 42°52' E 010°23'7 5.2
2017-Jun-18 11:49N 42°54' E 010°32'2 0.1
2017-Jun-17 18:01N 42°56' E 010°33'1 8.9
2017-Jun-17 17:58N 42°56' E 010°34'715.2
2017-Jun-17 17:31N 42°53' E 010°25'611.9
2017-Jun-17 17:00N 42°49' E 010°19'0 0.1
2017-Jun-17 16:29N 42°49' E 010°19'1214.5
2017-Jun-17 15:40N 42°55' E 010°33'1 1.6
2017-Jun-17 14:56N 42°56' E 010°34'615.0
2017-Jun-17 14:31N 42°53' E 010°26'7 6.6
2017-Jun-17 13:31N 42°49' E 010°19'714.5
2017-Jun-17 13:00N 42°54' E 010°27'5 7.7
2017-Jun-17 12:22N 42°56' E 010°33'0 0.8
2017-Jun-17 12:00N 42°56' E 010°33'612.4
2017-Jun-17 11:30N 42°53' E 010°26'5 4.6
2017-Jun-17 10:23N 42°49' E 010°21'715.5
2017-Jun-17 09:55N 42°54' E 010°28'4 5.0
2017-Jun-17 09:08N 42°56' E 010°33'1 6.2
2017-Jun-17 09:00N 42°56' E 010°34'715.0
2017-Jun-17 08:30N 42°53' E 010°25'611.2
2017-Jun-17 08:00N 42°49' E 010°19'0 0.1
2017-Jun-17 07:30N 42°49' E 010°19'1314.5
2017-Jun-17 06:38N 42°56' E 010°34'4 4.2
2017-Jun-17 05:40N 42°54' E 010°29'515.8
2017-Jun-17 05:23N 42°52' E 010°23'411.0
2017-Jun-17 05:00N 42°49' E 010°19'0 0.1
2017-Jun-17 04:30N 42°49' E 010°19'914.2
2017-Jun-17 03:51N 42°54' E 010°30'3 0.3
2017-Jun-16 17:55N 42°55' E 010°34'615.6
2017-Jun-16 17:30N 42°53' E 010°26'611.6
2017-Jun-16 16:58N 42°49' E 010°19'0 0.3
2017-Jun-16 16:31N 42°49' E 010°20'714.2
2017-Jun-16 16:00N 42°53' E 010°27'5 5.5
2017-Jun-16 15:00N 42°56' E 010°33'1312.4
2017-Jun-16 13:59N 42°49' E 010°19'0 0.2
2017-Jun-16 13:29N 42°49' E 010°20'714.4
2017-Jun-16 13:00N 42°53' E 010°27'5 5.5
2017-Jun-16 12:03N 42°56' E 010°33'0 4.3
2017-Jun-16 12:00N 42°56' E 010°33'612.3
2017-Jun-16 11:31N 42°53' E 010°26'6 9.2
2017-Jun-16 10:49N 42°49' E 010°19'0 0.5
2017-Jun-16 10:30N 42°49' E 010°20'714.6
2017-Jun-16 10:00N 42°53' E 010°27'5 5.3
2017-Jun-16 09:03N 42°56' E 010°33'111.8
2017-Jun-16 09:00N 42°56' E 010°34'914.7
2017-Jun-16 08:23N 42°52' E 010°23'4 9.7
2017-Jun-16 07:59N 42°49' E 010°19'0 0.6
2017-Jun-16 07:30N 42°49' E 010°20'1314.2
2017-Jun-16 06:37N 42°56' E 010°34'0 0.7
2017-Jun-16 06:00N 42°56' E 010°34'815.1
2017-Jun-16 05:31N 42°53' E 010°25'6 8.2
2017-Jun-16 04:50N 42°49' E 010°19'0 0.1
2017-Jun-16 04:30N 42°49' E 010°19'914.4
2017-Jun-16 03:53N 42°54' E 010°29'  

Dump ship's entire track history